Time;durP1;ratioP1;P1;durP2;ratioP2;P2;SDS_P1;SDS_P2;PMS_P1;PMS_P2;Temp;Humidity;BMP_temperature;BMP_pressure;BME280_temperature;BME280_humidity;BME280_pressure;Samples;Min_cycle;Max_cycle;Signal;HPM_P1;HPM_P2
2023/09/24 00:01:22;;;;;;;0.15;0.15;;;12.80;99.90;;;;;;5087817;28;20039;-79
2023/09/24 00:03:49;;;;;;;0.15;0.15;;;12.80;99.90;;;;;;5088645;28;20044;-79
2023/09/24 00:06:16;;;;;;;0.15;0.15;;;12.80;99.90;;;;;;5088084;28;20705;-79
2023/09/24 00:08:41;;;;;;;0.20;0.20;;;12.80;99.90;;;;;;5088853;28;20605;-80
2023/09/24 00:11:08;;;;;;;0.15;0.15;;;12.80;99.90;;;;;;5087261;28;20044;-80
2023/09/24 00:13:34;;;;;;;0.10;0.10;;;12.80;99.90;;;;;;5087706;28;20435;-80
2023/09/24 00:16:06;;;;;;;0.15;0.15;;;12.90;99.90;;;;;;5087973;28;20403;-80
2023/09/24 00:18:35;;;;;;;;;;;12.90;99.90;;;;;;5090080;28;20048;-80
2023/09/24 00:21:01;;;;;;;0.10;0.10;;;12.90;99.90;;;;;;5087383;28;19927;-80
2023/09/24 00:23:28;;;;;;;0.20;0.20;;;12.90;99.90;;;;;;5088495;28;20094;-81
2023/09/24 00:25:55;;;;;;;0.20;0.20;;;12.90;99.90;;;;;;5089759;28;20056;-80
2023/09/24 00:28:22;;;;;;;0.10;0.10;;;12.90;99.90;;;;;;5079757;28;20480;-81
2023/09/24 00:30:48;;;;;;;0.10;0.10;;;12.80;99.90;;;;;;5082226;28;20052;-81
2023/09/24 00:33:13;;;;;;;0.20;0.20;;;12.90;99.90;;;;;;5076102;28;20111;-80
2023/09/24 00:35:39;;;;;;;0.17;0.17;;;12.80;99.90;;;;;;5089373;28;20076;-81
2023/09/24 00:38:04;;;;;;;0.22;0.22;;;12.80;99.90;;;;;;5090247;28;20105;-80
2023/09/24 00:40:30;;;;;;;0.10;0.10;;;12.80;99.90;;;;;;5090340;28;20355;-81
2023/09/24 00:42:56;;;;;;;0.20;0.20;;;12.80;99.90;;;;;;5084515;28;20047;-80
2023/09/24 00:45:22;;;;;;;0.10;0.10;;;12.70;99.90;;;;;;5088220;28;20093;-80
2023/09/24 00:47:48;;;;;;;0.15;0.15;;;12.70;99.90;;;;;;5087398;28;20114;-80
2023/09/24 00:50:15;;;;;;;0.10;0.10;;;12.70;99.90;;;;;;5086774;28;20047;-78
2023/09/24 00:52:44;;;;;;;0.10;0.10;;;12.70;99.90;;;;;;5072628;28;20048;-79
2023/09/24 00:55:13;;;;;;;0.10;0.10;;;12.60;99.90;;;;;;5085970;28;20096;-79
2023/09/24 00:57:40;;;;;;;0.10;0.10;;;12.60;99.90;;;;;;5074595;28;20071;-78
2023/09/24 01:00:11;;;;;;;0.10;0.10;;;12.60;99.90;;;;;;5088437;28;20047;-78
2023/09/24 01:02:40;;;;;;;;;;;12.50;99.90;;;;;;5090637;28;20047;-78
2023/09/24 01:05:10;;;;;;;0.20;0.20;;;12.50;99.90;;;;;;5090075;28;19927;-78
2023/09/24 01:07:42;;;;;;;0.20;0.20;;;12.50;99.90;;;;;;5091665;28;20105;-78
2023/09/24 01:10:11;;;;;;;0.10;0.10;;;12.30;99.90;;;;;;5089135;28;20040;-79
2023/09/24 01:12:39;;;;;;;0.10;0.10;;;12.50;99.90;;;;;;5089917;28;20044;-79
2023/09/24 01:15:12;;;;;;;0.13;0.13;;;12.50;99.90;;;;;;5088729;28;20064;-79
2023/09/24 01:17:39;;;;;;;0.20;0.20;;;12.40;99.90;;;;;;5089946;28;20044;-80
2023/09/24 01:20:06;;;;;;;0.10;0.10;;;12.40;99.90;;;;;;5091022;28;20055;-80
2023/09/24 01:22:32;;;;;;;0.20;0.20;;;12.40;99.90;;;;;;5091328;28;20047;-80
2023/09/24 01:24:59;;;;;;;0.10;0.10;;;12.30;99.90;;;;;;5086445;28;20436;-79
2023/09/24 01:27:25;;;;;;;0.20;0.20;;;12.30;99.90;;;;;;5090715;28;20446;-79
2023/09/24 01:29:53;;;;;;;0.10;0.10;;;12.30;99.90;;;;;;5088333;28;20044;-79
2023/09/24 01:32:19;;;;;;;0.15;0.15;;;12.30;99.90;;;;;;5081256;28;20040;-79
2023/09/24 01:34:45;;;;;;;0.13;0.13;;;12.30;99.90;;;;;;5088640;28;20047;-80
2023/09/24 01:37:11;;;;;;;0.10;0.10;;;12.30;99.90;;;;;;5089675;28;20043;-79
2023/09/24 01:39:38;;;;;;;0.10;0.10;;;12.20;99.90;;;;;;5089078;28;20130;-79
2023/09/24 01:42:05;;;;;;;0.10;0.10;;;12.30;99.90;;;;;;5088145;28;20040;-79
2023/09/24 01:44:34;;;;;;;0.10;0.10;;;12.30;99.90;;;;;;5087962;28;20048;-79
2023/09/24 01:47:03;;;;;;;0.10;0.10;;;12.30;99.90;;;;;;5089420;28;20123;-79
2023/09/24 01:49:30;;;;;;;0.10;0.10;;;12.30;99.90;;;;;;5089056;28;20109;-79
2023/09/24 01:51:55;;;;;;;0.10;0.10;;;12.30;99.90;;;;;;5091046;28;20425;-79
2023/09/24 01:54:21;;;;;;;0.13;0.13;;;12.30;99.90;;;;;;5089616;28;20132;-79
2023/09/24 01:56:46;;;;;;;0.10;0.10;;;12.30;99.90;;;;;;5089555;28;20070;-79
2023/09/24 01:59:12;;;;;;;0.10;0.10;;;12.30;99.90;;;;;;5086262;28;20130;-80
2023/09/24 02:01:38;;;;;;;0.15;0.15;;;12.20;99.90;;;;;;5088220;28;20136;-79
2023/09/24 02:04:05;;;;;;;0.13;0.13;;;12.20;99.90;;;;;;5087420;28;20240;-79
2023/09/24 02:06:34;;;;;;;0.10;0.10;;;12.20;99.90;;;;;;5089920;28;20040;-80
2023/09/24 02:09:01;;;;;;;0.10;0.10;;;12.20;99.90;;;;;;5090081;28;20360;-79
2023/09/24 02:11:27;;;;;;;0.20;0.20;;;12.20;99.90;;;;;;5085827;28;20040;-79
2023/09/24 02:13:54;;;;;;;0.20;0.20;;;12.10;99.90;;;;;;5085833;28;20040;-78
2023/09/24 02:16:20;;;;;;;0.10;0.10;;;12.30;99.90;;;;;;5088955;28;20048;-79
2023/09/24 02:18:46;;;;;;;0.20;0.20;;;12.10;99.90;;;;;;5088706;28;20040;-80
2023/09/24 02:21:15;;;;;;;0.10;0.10;;;12.10;99.90;;;;;;5088071;28;20072;-79
2023/09/24 02:23:42;;;;;;;0.20;0.20;;;12.10;99.90;;;;;;5090289;28;20435;-79
2023/09/24 02:26:08;;;;;;;0.10;0.10;;;12.20;99.90;;;;;;5085654;28;20051;-79
2023/09/24 02:28:38;;;;;;;0.17;0.17;;;12.10;99.90;;;;;;5088740;28;20694;-79
2023/09/24 02:31:05;;;;;;;0.13;0.13;;;12.10;99.90;;;;;;5088090;28;20055;-79
2023/09/24 02:33:31;;;;;;;0.10;0.10;;;12.10;99.90;;;;;;5079214;28;20160;-79
2023/09/24 02:35:56;;;;;;;0.10;0.10;;;12.10;99.90;;;;;;5087909;28;20415;-79
2023/09/24 02:38:24;;;;;;;0.10;0.10;;;12.10;99.90;;;;;;5087172;28;20050;-79
2023/09/24 02:40:50;;;;;;;0.15;0.15;;;12.00;99.90;;;;;;5084818;28;20044;-79
2023/09/24 02:43:16;;;;;;;0.10;0.10;;;12.00;99.90;;;;;;5086922;28;20103;-79
2023/09/24 02:45:42;;;;;;;0.10;0.10;;;12.00;99.90;;;;;;5086966;28;20036;-79
2023/09/24 02:48:08;;;;;;;0.10;0.10;;;12.00;99.90;;;;;;5087379;28;20094;-79
2023/09/24 02:50:33;;;;;;;0.17;0.17;;;11.90;99.90;;;;;;5088952;28;20331;-79
2023/09/24 02:53:05;;;;;;;0.13;0.13;;;11.90;99.90;;;;;;5089120;28;20486;-79
2023/09/24 02:55:31;;;;;;;0.10;0.10;;;12.00;99.90;;;;;;5085422;28;20052;-79
2023/09/24 02:57:57;;;;;;;0.10;0.10;;;11.90;99.90;;;;;;5085208;28;20036;-80
2023/09/24 03:00:33;;;;;;;0.10;0.10;;;11.80;99.90;;;;;;5086875;28;20593;-79
2023/09/24 03:03:00;;;;;;;0.10;0.10;;;11.80;99.90;;;;;;5087665;28;20113;-79
2023/09/24 03:05:28;;;;;;;0.20;0.20;;;11.80;99.90;;;;;;5087798;28;20450;-79
2023/09/24 03:07:55;;;;;;;0.10;0.10;;;11.80;99.90;;;;;;5087684;28;20050;-79
2023/09/24 03:10:21;;;;;;;0.20;0.20;;;11.80;99.90;;;;;;5085434;28;20076;-80
2023/09/24 03:12:48;;;;;;;0.10;0.10;;;11.80;99.90;;;;;;5086584;28;20027;-79
2023/09/24 03:15:15;;;;;;;0.10;0.10;;;11.70;99.90;;;;;;5087044;28;20052;-79
2023/09/24 03:17:42;;;;;;;0.20;0.20;;;11.70;99.90;;;;;;5088071;28;20040;-79
2023/09/24 03:20:15;;;;;;;0.10;0.10;;;11.70;99.90;;;;;;5081580;28;20067;-79
2023/09/24 03:22:48;;;;;;;0.10;0.10;;;11.70;99.90;;;;;;5079686;28;20079;-79
2023/09/24 03:25:18;;;;;;;0.20;0.20;;;11.70;99.90;;;;;;5086350;28;20044;-79
2023/09/24 03:27:51;;;;;;;0.10;0.10;;;11.70;99.90;;;;;;5088693;28;20052;-79
2023/09/24 03:30:17;;;;;;;0.10;0.10;;;11.70;99.90;;;;;;5087706;28;20144;-80
2023/09/24 03:32:51;;;;;;;0.13;0.13;;;11.70;99.90;;;;;;5085316;28;21521;-79
2023/09/24 03:35:21;;;;;;;0.10;0.10;;;11.70;99.90;;;;;;5075475;28;20051;-79
2023/09/24 03:37:47;;;;;;;0.10;0.10;;;11.70;99.90;;;;;;5085533;28;20044;-79
2023/09/24 03:40:16;;;;;;;0.10;0.10;;;11.70;99.90;;;;;;5085716;28;20115;-79
2023/09/24 03:42:42;;;;;;;0.10;0.10;;;11.70;99.90;;;;;;5084764;28;20079;-79
2023/09/24 03:45:16;;;;;;;0.20;0.20;;;11.70;99.90;;;;;;5085007;28;20052;-79
2023/09/24 03:47:43;;;;;;;0.10;0.10;;;11.70;99.90;;;;;;5087664;28;20066;-79
2023/09/24 03:50:13;;;;;;;0.10;0.10;;;11.70;99.90;;;;;;5087410;28;20391;-78
2023/09/24 03:52:41;;;;;;;0.10;0.10;;;11.70;99.90;;;;;;5085244;28;20067;-79
2023/09/24 03:55:08;;;;;;;0.10;0.10;;;11.70;99.90;;;;;;5085240;28;20052;-78
2023/09/24 03:57:35;;;;;;;0.10;0.10;;;11.70;99.90;;;;;;5087522;28;20471;-79
2023/09/24 04:00:01;;;;;;;0.10;0.10;;;11.70;99.90;;;;;;5087145;28;20123;-79
2023/09/24 04:02:29;;;;;;;0.20;0.20;;;11.70;99.90;;;;;;5090113;28;20122;-79
2023/09/24 04:04:55;;;;;;;0.10;0.10;;;11.70;99.90;;;;;;5090517;28;20048;-79
2023/09/24 04:07:21;;;;;;;0.20;0.20;;;11.70;99.90;;;;;;5090129;28;20139;-79
2023/09/24 04:09:50;;;;;;;0.10;0.10;;;11.70;99.90;;;;;;5089822;28;20457;-79
2023/09/24 04:12:16;;;;;;;0.10;0.10;;;11.70;99.90;;;;;;5089489;28;20479;-79
2023/09/24 04:14:41;;;;;;;0.10;0.10;;;11.70;99.90;;;;;;5089329;28;20048;-79
2023/09/24 04:17:07;;;;;;;0.10;0.10;;;11.80;99.90;;;;;;5088490;28;20052;-79
2023/09/24 04:19:33;;;;;;;0.10;0.10;;;11.70;99.90;;;;;;5090513;28;20052;-79
2023/09/24 04:21:59;;;;;;;0.10;0.10;;;11.70;99.90;;;;;;5083329;28;20044;-78
2023/09/24 04:24:25;;;;;;;0.10;0.10;;;11.60;99.90;;;;;;5087739;28;20067;-79
2023/09/24 04:26:52;;;;;;;0.10;0.10;;;11.60;99.90;;;;;;5086930;28;20100;-79
2023/09/24 04:29:18;;;;;;;0.20;0.20;;;11.60;99.90;;;;;;5088872;28;20440;-79
2023/09/24 04:31:44;;;;;;;0.10;0.10;;;11.60;99.90;;;;;;5091897;28;20071;-79
2023/09/24 04:34:12;;;;;;;0.15;0.15;;;11.60;99.90;;;;;;5083436;28;20479;-79
2023/09/24 04:36:41;;;;;;;0.20;0.20;;;11.60;99.90;;;;;;5083788;28;20040;-79
2023/09/24 04:39:10;;;;;;;0.10;0.10;;;11.60;99.90;;;;;;5090136;28;20032;-78
2023/09/24 04:41:39;;;;;;;0.10;0.10;;;11.50;99.90;;;;;;5089444;28;20051;-79
2023/09/24 04:44:08;;;;;;;0.10;0.10;;;11.60;99.90;;;;;;5087701;28;20040;-79
2023/09/24 04:46:35;;;;;;;0.10;0.10;;;11.50;99.90;;;;;;5087257;28;20044;-79
2023/09/24 04:49:02;;;;;;;0.20;0.20;;;11.50;99.90;;;;;;5088256;28;20170;-79
2023/09/24 04:51:28;;;;;;;0.10;0.10;;;11.50;99.90;;;;;;5090344;28;20051;-79
2023/09/24 04:53:54;;;;;;;0.10;0.10;;;11.50;99.90;;;;;;5090071;28;20034;-79
2023/09/24 04:56:19;;;;;;;0.10;0.10;;;11.50;99.90;;;;;;5083457;28;20075;-79
2023/09/24 04:58:45;;;;;;;0.10;0.10;;;11.50;99.90;;;;;;5087753;28;20044;-79
2023/09/24 05:01:11;;;;;;;0.20;0.20;;;11.40;99.90;;;;;;5088792;28;20035;-79
2023/09/24 05:03:37;;;;;;;0.20;0.20;;;11.40;99.90;;;;;;5089326;28;20487;-79
2023/09/24 05:06:03;;;;;;;0.10;0.10;;;11.50;99.90;;;;;;5089215;28;20068;-79
2023/09/24 05:08:29;;;;;;;0.10;0.10;;;11.40;99.90;;;;;;5087875;28;20125;-78
2023/09/24 05:10:55;;;;;;;0.10;0.10;;;11.40;99.90;;;;;;5085600;28;20064;-78
2023/09/24 05:13:20;;;;;;;0.10;0.10;;;11.40;99.90;;;;;;5087658;28;20251;-80
2023/09/24 05:16:00;;;;;;;0.10;0.10;;;11.40;99.90;;;;;;5087822;28;20300;-79
2023/09/24 05:18:29;;;;;;;0.20;0.20;;;11.40;99.90;;;;;;5089724;28;20083;-79
2023/09/24 05:20:55;;;;;;;0.10;0.10;;;11.40;99.90;;;;;;5088952;28;20040;-79
2023/09/24 05:23:21;;;;;;;0.20;0.20;;;11.40;99.90;;;;;;5087155;28;20078;-79
2023/09/24 05:25:49;;;;;;;0.10;0.10;;;11.30;99.90;;;;;;5087915;28;20057;-79
2023/09/24 05:28:15;;;;;;;0.20;0.20;;;11.30;99.90;;;;;;5088407;28;20126;-79
2023/09/24 05:30:40;;;;;;;0.10;0.10;;;11.20;99.90;;;;;;5084471;28;20127;-79
2023/09/24 05:33:07;;;;;;;0.20;0.20;;;11.30;99.90;;;;;;5087397;28;20040;-78
2023/09/24 05:35:33;;;;;;;0.20;0.20;;;11.30;99.90;;;;;;5085660;28;20043;-79
2023/09/24 05:37:58;;;;;;;0.15;0.15;;;11.20;99.90;;;;;;5086124;28;20468;-80
2023/09/24 05:40:24;;;;;;;0.10;0.10;;;11.30;99.90;;;;;;5088540;28;20050;-79
2023/09/24 05:42:50;;;;;;;0.10;0.10;;;11.20;99.90;;;;;;5088386;28;20036;-79
2023/09/24 05:45:16;;;;;;;0.10;0.10;;;11.20;99.90;;;;;;5083398;28;20036;-78
2023/09/24 05:47:42;;;;;;;0.20;0.20;;;11.20;99.90;;;;;;5088108;28;20104;-78
2023/09/24 05:50:08;;;;;;;0.20;0.20;;;11.20;99.90;;;;;;5088267;28;20035;-79
2023/09/24 05:52:34;;;;;;;0.20;0.20;;;11.20;99.90;;;;;;5088338;28;20082;-79
2023/09/24 05:54:59;;;;;;;0.10;0.10;;;11.20;99.90;;;;;;5089425;28;20032;-79
2023/09/24 05:57:26;;;;;;;0.20;0.20;;;11.10;99.90;;;;;;5087100;28;20074;-78
2023/09/24 05:59:54;;;;;;;0.17;0.17;;;11.10;99.90;;;;;;5088130;28;20624;-79
2023/09/24 06:02:24;;;;;;;0.10;0.10;;;11.20;99.90;;;;;;5088373;28;20040;-79
2023/09/24 06:04:50;;;;;;;0.10;0.10;;;11.20;99.90;;;;;;5087278;28;20047;-78
2023/09/24 06:07:15;;;;;;;0.20;0.20;;;11.20;99.90;;;;;;5089107;28;20044;-79
2023/09/24 06:09:41;;;;;;;0.20;0.20;;;11.20;99.90;;;;;;5086392;28;20032;-79
2023/09/24 06:12:07;;;;;;;0.20;0.20;;;11.20;99.90;;;;;;5088157;28;20128;-79
2023/09/24 06:14:33;;;;;;;0.20;0.20;;;11.20;99.90;;;;;;5087818;28;20135;-79
2023/09/24 06:16:59;;;;;;;0.10;0.10;;;11.20;99.90;;;;;;5087309;28;20424;-79
2023/09/24 06:19:25;;;;;;;0.10;0.10;;;11.20;99.90;;;;;;5086884;28;20052;-78
2023/09/24 06:21:50;;;;;;;0.10;0.10;;;11.20;99.90;;;;;;5086143;28;20131;-79
2023/09/24 06:24:17;;;;;;;0.20;0.20;;;11.20;99.90;;;;;;5086524;28;20044;-79
2023/09/24 06:26:42;;;;;;;0.10;0.10;;;11.20;99.90;;;;;;5086453;28;20055;-79
2023/09/24 06:29:08;;;;;;;0.10;0.10;;;11.20;99.90;;;;;;5086442;28;20496;-79
2023/09/24 06:31:34;;;;;;;0.20;0.20;;;11.30;99.90;;;;;;5086461;28;20043;-79
2023/09/24 06:34:00;;;;;;;0.10;0.10;;;11.30;99.90;;;;;;5086785;28;20040;-78
2023/09/24 06:36:26;;;;;;;0.10;0.10;;;11.30;99.90;;;;;;5079219;28;20051;-79
2023/09/24 06:38:51;;;;;;;0.20;0.20;;;11.40;99.90;;;;;;5082425;28;20230;-79
2023/09/24 06:41:17;;;;;;;0.10;0.10;;;11.30;99.90;;;;;;5086899;28;20062;-78
2023/09/24 06:43:43;;;;;;;0.20;0.20;;;11.40;99.90;;;;;;5085081;28;20468;-79
2023/09/24 06:46:09;;;;;;;0.10;0.10;;;11.40;99.90;;;;;;5084789;28;20043;-79
2023/09/24 06:48:34;;;;;;;0.10;0.10;;;11.40;99.90;;;;;;5086715;28;20035;-79
2023/09/24 06:51:08;;;;;;;0.10;0.10;;;11.50;99.90;;;;;;5085110;28;20046;-79
2023/09/24 06:53:34;;;;;;;0.10;0.10;;;11.50;99.90;;;;;;5085963;28;20051;-79
2023/09/24 06:56:02;;;;;;;0.10;0.10;;;11.50;99.90;;;;;;5085123;28;20062;-80
2023/09/24 06:58:28;;;;;;;0.20;0.20;;;11.60;99.90;;;;;;5085521;28;20070;-80
2023/09/24 07:00:58;;;;;;;0.20;0.20;;;11.70;99.90;;;;;;5085584;28;20048;-79
2023/09/24 07:03:23;;;;;;;0.17;0.17;;;11.70;99.90;;;;;;5084900;28;20055;-81
2023/09/24 07:05:51;;;;;;;0.10;0.10;;;11.70;99.90;;;;;;5087291;28;20036;-80
2023/09/24 07:08:16;;;;;;;0.10;0.10;;;11.80;99.90;;;;;;5087968;28;20127;-80
2023/09/24 07:10:42;;;;;;;0.20;0.20;;;11.90;99.90;;;;;;5086527;28;20543;-80
2023/09/24 07:13:07;;;;;;;0.20;0.20;;;11.90;99.90;;;;;;5089395;28;20107;-80
2023/09/24 07:15:33;;;;;;;0.17;0.17;;;11.90;99.90;;;;;;5086056;28;20131;-80
2023/09/24 07:17:59;;;;;;;0.15;0.15;;;12.00;99.90;;;;;;5088074;28;20122;-80
2023/09/24 07:20:24;;;;;;;0.10;0.10;;;12.00;99.90;;;;;;5086864;28;20101;-80
2023/09/24 07:22:50;;;;;;;0.10;0.10;;;12.10;99.90;;;;;;5085277;28;20059;-79
2023/09/24 07:25:16;;;;;;;0.20;0.20;;;12.20;99.90;;;;;;5082255;28;20127;-81
2023/09/24 07:27:41;;;;;;;0.20;0.20;;;12.20;99.90;;;;;;5087179;28;20523;-80
2023/09/24 07:30:08;;;;;;;0.15;0.15;;;12.30;99.90;;;;;;5087231;28;20124;-79
2023/09/24 07:32:34;;;;;;;0.20;0.20;;;12.30;99.90;;;;;;5087653;28;20052;-80
2023/09/24 07:35:00;;;;;;;0.20;0.20;;;12.40;99.90;;;;;;5090526;28;20040;-80
2023/09/24 07:37:26;;;;;;;0.17;0.17;;;12.40;99.90;;;;;;5088680;28;20123;-80
2023/09/24 07:39:51;;;;;;;0.20;0.20;;;12.50;99.90;;;;;;5085691;28;20139;-80
2023/09/24 07:42:20;;;;;;;0.13;0.13;;;12.60;99.90;;;;;;5089462;28;20044;-80
2023/09/24 07:44:46;;;;;;;0.10;0.10;;;12.60;99.90;;;;;;5092195;28;20302;-80
2023/09/24 07:47:12;;;;;;;0.10;0.10;;;12.70;99.90;;;;;;5088771;28;20048;-80
2023/09/24 07:49:37;;;;;;;0.20;0.20;;;12.70;99.90;;;;;;5090966;28;20467;-80
2023/09/24 07:52:03;;;;;;;0.30;0.30;;;12.80;99.90;;;;;;5087641;28;20036;-80
2023/09/24 07:54:29;;;;;;;0.10;0.10;;;12.80;99.90;;;;;;5076790;28;20044;-79
2023/09/24 07:56:54;;;;;;;0.20;0.20;;;12.80;99.90;;;;;;5087471;28;20039;-79
2023/09/24 07:59:20;;;;;;;0.10;0.10;;;12.90;99.90;;;;;;5079830;28;20036;-80
2023/09/24 08:01:46;;;;;;;0.20;0.20;;;13.00;99.90;;;;;;5092778;28;20585;-79
2023/09/24 08:04:12;;;;;;;0.20;0.20;;;13.00;99.90;;;;;;5086223;28;20139;-78
2023/09/24 08:06:38;;;;;;;0.10;0.10;;;13.10;99.90;;;;;;5088185;28;20039;-79
2023/09/24 08:09:05;;;;;;;0.10;0.10;;;13.10;99.90;;;;;;5087763;28;20490;-80
2023/09/24 08:11:32;;;;;;;0.20;0.20;;;13.10;99.90;;;;;;5085851;28;20495;-80
2023/09/24 08:13:59;;;;;;;0.20;0.20;;;13.20;99.90;;;;;;5082769;28;20077;-78
2023/09/24 08:16:25;;;;;;;0.10;0.10;;;13.20;99.90;;;;;;5081199;28;20491;-79
2023/09/24 08:18:50;;;;;;;0.10;0.10;;;13.30;99.90;;;;;;5083266;28;20055;-79
2023/09/24 08:21:16;;;;;;;0.20;0.20;;;13.30;99.90;;;;;;5080550;28;20045;-77
2023/09/24 08:23:42;;;;;;;0.20;0.20;;;13.30;99.90;;;;;;5088927;28;20489;-76
2023/09/24 08:26:08;;;;;;;0.10;0.10;;;13.40;99.90;;;;;;5102243;28;20138;-77
2023/09/24 08:28:34;;;;;;;0.10;0.10;;;13.40;99.90;;;;;;5089199;28;20068;-77
2023/09/24 08:30:59;;;;;;;0.10;0.10;;;13.40;99.90;;;;;;5090219;28;20048;-77
2023/09/24 08:33:25;;;;;;;0.20;0.20;;;13.50;99.90;;;;;;5083594;28;20146;-77
2023/09/24 08:35:51;;;;;;;0.17;0.17;;;13.50;99.90;;;;;;5091297;28;20052;-77
2023/09/24 08:38:16;;;;;;;0.10;0.10;;;13.60;99.90;;;;;;5084571;28;20051;-78
2023/09/24 08:40:42;;;;;;;0.10;0.10;;;13.60;99.90;;;;;;5073390;28;20044;-78
2023/09/24 08:43:19;;;;;;;0.10;0.10;;;13.70;99.90;;;;;;5085428;28;20073;-78
2023/09/24 08:45:46;;;;;;;0.10;0.10;;;13.70;99.90;;;;;;5081100;28;20059;-77
2023/09/24 08:48:13;;;;;;;0.20;0.20;;;13.80;99.90;;;;;;5084613;28;20056;-78
2023/09/24 08:50:44;;;;;;;0.13;0.13;;;13.80;99.90;;;;;;5082330;28;20051;-77
2023/09/24 08:53:11;;;;;;;0.15;0.15;;;13.90;99.90;;;;;;5084397;28;20040;-77
2023/09/24 08:55:41;;;;;;;0.10;0.10;;;13.90;99.90;;;;;;5084648;28;20049;-77
2023/09/24 08:58:07;;;;;;;0.10;0.10;;;14.00;99.90;;;;;;5085308;28;20667;-76
2023/09/24 09:00:33;;;;;;;0.10;0.10;;;14.10;99.90;;;;;;5082133;28;20044;-77
2023/09/24 09:03:03;;;;;;;0.10;0.10;;;14.10;99.90;;;;;;5086655;28;20062;-77
2023/09/24 09:05:29;;;;;;;0.10;0.10;;;14.20;99.90;;;;;;5086510;28;20044;-77
2023/09/24 09:07:59;;;;;;;0.20;0.20;;;14.30;99.90;;;;;;5079044;28;20484;-77
2023/09/24 09:10:36;;;;;;;0.17;0.17;;;14.30;99.90;;;;;;5078793;28;20055;-77
2023/09/24 09:13:09;;;;;;;0.10;0.10;;;14.40;99.90;;;;;;5074963;28;20302;-77
2023/09/24 09:15:39;;;;;;;0.10;0.10;;;14.50;99.90;;;;;;5078493;28;20571;-77
2023/09/24 09:18:06;;;;;;;0.10;0.10;;;14.50;99.90;;;;;;5086471;28;20135;-77
2023/09/24 09:20:43;;;;;;;0.20;0.20;;;14.60;99.90;;;;;;5080772;28;20406;-77
2023/09/24 09:23:13;;;;;;;0.20;0.20;;;14.70;99.90;;;;;;5080690;28;20056;-76
2023/09/24 09:25:49;;;;;;;0.20;0.20;;;14.80;99.90;;;;;;5089400;28;20094;-77
2023/09/24 09:28:24;;;;;;;0.20;0.20;;;14.90;99.90;;;;;;5078383;28;20036;-76
2023/09/24 09:31:10;;;;;;;0.20;0.20;;;14.90;99.90;;;;;;5076384;28;20491;-76
2023/09/24 09:33:41;;;;;;;0.20;0.20;;;15.00;99.90;;;;;;5090224;28;20065;-76
2023/09/24 09:36:22;;;;;;;;;;;15.00;99.90;;;;;;5088465;28;20048;-76
2023/09/24 09:38:48;;;;;;;0.20;0.20;;;15.10;99.90;;;;;;5084798;28;19920;-75
2023/09/24 09:41:17;;;;;;;0.10;0.10;;;15.20;99.90;;;;;;5082880;28;20063;-76
2023/09/24 09:43:44;;;;;;;0.13;0.13;;;15.20;99.90;;;;;;5089671;28;20032;-76
2023/09/24 09:46:12;;;;;;;0.10;0.10;;;15.30;99.90;;;;;;5085213;28;20051;-76
2023/09/24 09:48:39;;;;;;;0.20;0.20;;;15.30;99.90;;;;;;5084215;28;20035;-77
2023/09/24 09:51:07;;;;;;;0.20;0.20;;;15.40;99.90;;;;;;5085838;28;20055;-76
2023/09/24 09:53:35;;;;;;;0.10;0.10;;;15.50;99.90;;;;;;5084982;28;20061;-77
2023/09/24 09:56:06;;;;;;;0.20;0.20;;;15.50;99.90;;;;;;5083934;28;20075;-77
2023/09/24 09:58:33;;;;;;;;;;;15.60;99.90;;;;;;5081145;28;20961;-76
2023/09/24 10:01:00;;;;;;;0.20;0.20;;;15.90;99.90;;;;;;5071765;28;20034;-76
2023/09/24 10:03:27;;;;;;;0.10;0.10;;;15.80;99.90;;;;;;5079256;28;20059;-76
2023/09/24 10:05:54;;;;;;;0.20;0.20;;;15.80;99.90;;;;;;5080028;28;20087;-76
2023/09/24 10:08:47;;;;;;;0.20;0.20;;;15.90;99.90;;;;;;5085872;28;20651;-76
2023/09/24 10:11:31;;;;;;;0.20;0.20;;;16.00;99.90;;;;;;5075284;28;20158;-75
2023/09/24 10:13:58;;;;;;;0.20;0.20;;;16.10;99.90;;;;;;5078768;28;20050;-75
2023/09/24 10:16:35;;;;;;;0.20;0.20;;;16.20;99.90;;;;;;5078331;28;20122;-76
2023/09/24 10:19:06;;;;;;;0.20;0.20;;;16.30;99.90;;;;;;5077334;28;20097;-76
2023/09/24 10:21:43;;;;;;;0.20;0.20;;;16.40;99.90;;;;;;5094026;28;20079;-76
2023/09/24 10:24:12;;;;;;;0.20;0.20;;;16.40;99.90;;;;;;5080911;28;20055;-76
2023/09/24 10:27:02;;;;;;;0.20;0.20;;;16.50;99.90;;;;;;5076386;28;20514;-76
2023/09/24 10:29:44;;;;;;;0.20;0.20;;;16.60;99.90;;;;;;5077068;28;20039;-76
2023/09/24 10:32:14;;;;;;;0.10;0.10;;;16.70;99.90;;;;;;5076667;28;20048;-77
2023/09/24 10:35:00;;;;;;;0.20;0.20;;;16.70;99.90;;;;;;5069983;28;20048;-76
2023/09/24 10:37:34;;;;;;;0.20;0.20;;;16.70;99.90;;;;;;5062637;28;20056;-76
2023/09/24 10:42:29;;;;;;;0.10;0.10;;;16.80;99.90;;;;;;5083709;28;20055;-78
2023/09/24 10:45:07;;;;;;;0.10;0.10;;;16.90;99.90;;;;;;5082640;28;20087;-77
2023/09/24 10:47:40;;;;;;;0.20;0.20;;;16.90;99.90;;;;;;5078359;28;20046;-76
2023/09/24 10:50:07;;;;;;;0.17;0.17;;;17.00;99.90;;;;;;5082110;28;20114;-76
2023/09/24 10:53:05;;;;;;;0.20;0.20;;;17.10;99.90;;;;;;5081424;28;20044;-76
2023/09/24 10:55:36;;;;;;;0.10;0.10;;;17.20;99.90;;;;;;5053833;28;20063;-76
2023/09/24 10:58:12;;;;;;;;;;;17.30;99.90;;;;;;5079453;28;20507;-77
2023/09/24 11:00:39;;;;;;;0.20;0.20;;;17.40;99.90;;;;;;5078696;28;19931;-76
2023/09/24 11:03:07;;;;;;;0.10;0.10;;;17.50;99.90;;;;;;5075482;28;20059;-77
2023/09/24 11:05:45;;;;;;;0.20;0.20;;;17.50;99.90;;;;;;5086695;28;20134;-77
2023/09/24 11:08:13;;;;;;;0.10;0.10;;;17.60;99.90;;;;;;5081236;28;20044;-77
2023/09/24 11:10:39;;;;;;;0.20;0.20;;;17.60;99.90;;;;;;5085089;28;20077;-77
2023/09/24 11:13:05;;;;;;;0.20;0.20;;;17.70;99.90;;;;;;5078653;28;20051;-77
2023/09/24 11:15:33;;;;;;;0.20;0.20;;;17.80;99.90;;;;;;5075270;28;20548;-77
2023/09/24 11:17:59;;;;;;;0.20;0.20;;;17.80;99.90;;;;;;5082045;28;20036;-77
2023/09/24 11:20:28;;;;;;;0.20;0.20;;;17.90;99.90;;;;;;5081071;28;20154;-77
2023/09/24 11:23:10;;;;;;;0.20;0.20;;;18.00;99.90;;;;;;5085589;28;20093;-76
2023/09/24 11:25:36;;;;;;;0.20;0.20;;;18.10;99.90;;;;;;5080043;28;20457;-75
2023/09/24 11:28:04;;;;;;;0.20;0.20;;;18.10;99.90;;;;;;5075952;28;20411;-76
2023/09/24 11:30:41;;;;;;;0.20;0.20;;;18.20;99.90;;;;;;5082680;28;20040;-76
2023/09/24 11:33:21;;;;;;;0.20;0.20;;;18.40;99.90;;;;;;5086822;28;20065;-76
2023/09/24 11:35:47;;;;;;;0.20;0.20;;;18.50;99.90;;;;;;5084385;28;20403;-76
2023/09/24 11:38:25;;;;;;;0.20;0.20;;;18.50;99.90;;;;;;5085579;28;20036;-76
2023/09/24 11:40:50;;;;;;;0.20;0.20;;;18.60;99.90;;;;;;5083425;28;20040;-77
2023/09/24 11:43:16;;;;;;;0.20;0.20;;;18.70;99.90;;;;;;5086359;28;20047;-77
2023/09/24 11:45:49;;;;;;;0.20;0.20;;;18.80;99.90;;;;;;5091011;28;20046;-76
2023/09/24 11:48:19;;;;;;;0.20;0.20;;;18.90;99.90;;;;;;5084797;28;20041;-76
2023/09/24 11:50:52;;;;;;;0.20;0.20;;;19.00;99.90;;;;;;5093216;28;20035;-76
2023/09/24 11:53:20;;;;;;;0.20;0.20;;;19.20;99.90;;;;;;5085119;28;20053;-76
2023/09/24 11:55:47;;;;;;;0.20;0.20;;;19.30;99.90;;;;;;5085424;28;20036;-77
2023/09/24 11:58:14;;;;;;;0.20;0.20;;;19.40;99.90;;;;;;5085510;28;20100;-76
2023/09/24 12:00:43;;;;;;;0.20;0.20;;;19.60;99.90;;;;;;5083306;28;20135;-76
2023/09/24 12:03:09;;;;;;;0.20;0.20;;;19.60;99.90;;;;;;5090114;28;20510;-76
2023/09/24 12:05:35;;;;;;;0.25;0.25;;;19.60;99.90;;;;;;5077067;28;20048;-76
2023/09/24 12:08:03;;;;;;;0.20;0.20;;;19.60;99.90;;;;;;5078798;28;21789;-77
2023/09/24 12:10:30;;;;;;;0.20;0.20;;;19.60;99.90;;;;;;5073380;28;20143;-76
2023/09/24 12:13:01;;;;;;;0.20;0.20;;;19.60;99.90;;;;;;5080926;28;20089;-76
2023/09/24 12:15:29;;;;;;;0.20;0.20;;;19.60;99.90;;;;;;5070890;28;20052;-76
2023/09/24 12:17:56;;;;;;;0.20;0.20;;;19.60;99.90;;;;;;5066838;28;20055;-76
2023/09/24 12:20:22;;;;;;;0.20;0.20;;;19.60;99.90;;;;;;5071962;28;21443;-76
2023/09/24 12:22:48;;;;;;;0.28;0.20;;;19.70;99.90;;;;;;5076175;28;20452;-77
2023/09/24 12:25:14;;;;;;;0.20;0.20;;;19.90;99.90;;;;;;5077751;28;20111;-76
2023/09/24 12:27:40;;;;;;;0.20;0.20;;;20.00;99.90;;;;;;5080195;28;20048;-76
2023/09/24 12:30:10;;;;;;;0.20;0.20;;;20.20;99.90;;;;;;5082586;28;20051;-76
2023/09/24 12:32:36;;;;;;;0.20;0.20;;;20.30;99.90;;;;;;5086411;28;20036;-76
2023/09/24 12:35:03;;;;;;;0.20;0.20;;;20.50;99.90;;;;;;5084078;28;21114;-76
2023/09/24 12:37:29;;;;;;;0.20;0.20;;;20.70;99.90;;;;;;5085663;28;20044;-76
2023/09/24 12:39:58;;;;;;;0.10;0.10;;;20.90;99.90;;;;;;5086274;28;20051;-76
2023/09/24 12:42:27;;;;;;;0.20;0.20;;;21.00;99.90;;;;;;5083787;28;20319;-76
2023/09/24 12:44:53;;;;;;;0.20;0.20;;;21.10;99.90;;;;;;5084372;28;20032;-77
2023/09/24 12:47:19;;;;;;;0.20;0.20;;;21.40;99.90;;;;;;5083939;28;20119;-77
2023/09/24 12:49:45;;;;;;;0.20;0.20;;;21.60;99.90;;;;;;5089757;28;20067;-76
2023/09/24 12:52:12;;;;;;;0.20;0.20;;;21.60;99.90;;;;;;5082818;28;20098;-76
2023/09/24 12:54:39;;;;;;;0.20;0.20;;;21.60;99.90;;;;;;5082295;28;20396;-77